Time;durP1;ratioP1;P1;durP2;ratioP2;P2;SDS_P1;SDS_P2;PMS_P1;PMS_P2;Temp;Humidity;BMP_temperature;BMP_pressure;BME280_temperature;BME280_humidity;BME280_pressure;Samples;Min_cycle;Max_cycle;Signal;HPM_P1;HPM_P2
2021/07/19 00:00:59;;;;;;;;;;;23.00;91.60;;;;;;5034613;28;20281;-78
2021/07/19 00:03:25;;;;;;;;;;;23.00;91.60;;;;;;5034960;28;19916;-77
2021/07/19 00:05:50;;;;;;;;;;;22.90;91.90;;;;;;5034507;28;19917;-78
2021/07/19 00:08:16;;;;;;;;;;;22.80;92.10;;;;;;5034041;28;19932;-77
2021/07/19 00:10:42;;;;;;;;;;;23.00;91.90;;;;;;5034381;28;20378;-78
2021/07/19 00:13:08;;;;;;;;;;;22.90;91.90;;;;;;5034283;28;19913;-77
2021/07/19 00:15:33;;;;;;;;;;;23.00;91.90;;;;;;5034475;28;20342;-78
2021/07/19 00:17:59;;;;;;;;;;;23.00;91.70;;;;;;5034280;28;19940;-78
2021/07/19 00:20:25;;;;;;;;;;;23.00;91.60;;;;;;5034240;28;19916;-78
2021/07/19 00:22:52;;;;;;;;;;;22.90;92.00;;;;;;5034108;28;19975;-77
2021/07/19 00:25:18;;;;;;;;;;;22.80;92.10;;;;;;5034170;28;19909;-76
2021/07/19 00:27:44;;;;;;;;;;;22.70;92.30;;;;;;5034142;28;20290;-78
2021/07/19 00:30:13;;;;;;;;;;;22.60;92.50;;;;;;5034343;28;19910;-77
2021/07/19 00:32:40;;;;;;;;;;;22.70;92.50;;;;;;5034313;28;19909;-77
2021/07/19 00:35:06;;;;;;;;;;;22.70;91.70;;;;;;5032641;28;20387;-77
2021/07/19 00:37:32;;;;;;;;;;;22.80;91.10;;;;;;5034366;28;19909;-78
2021/07/19 00:39:57;;;;;;;;;;;22.70;91.50;;;;;;5032641;28;19913;-78
2021/07/19 00:42:23;;;;;;;;;;;22.70;92.00;;;;;;5033942;28;19909;-77
2021/07/19 00:44:49;;;;;;;;;;;22.80;91.80;;;;;;5033846;28;19910;-78
2021/07/19 00:47:15;;;;;;;;;;;22.70;91.40;;;;;;5033870;28;19909;-77
2021/07/19 00:49:42;;;;;;;;;;;22.70;91.10;;;;;;5032530;28;19909;-77
2021/07/19 00:52:07;;;;;;;;;;;22.60;90.90;;;;;;5033929;28;20341;-77
2021/07/19 00:54:35;;;;;;;;;;;22.40;91.00;;;;;;5033886;28;19948;-78
2021/07/19 00:57:02;;;;;;;;;;;22.30;91.20;;;;;;5033628;28;19952;-76
2021/07/19 00:59:30;;;;;;;;;;;22.30;91.50;;;;;;5033862;28;19959;-78
2021/07/19 01:01:56;;;;;;;;;;;22.20;91.60;;;;;;5033640;28;19920;-77
2021/07/19 01:04:24;;;;;;;;;;;22.10;92.10;;;;;;5033659;28;19909;-77
2021/07/19 01:06:51;;;;;;;;;;;21.80;93.10;;;;;;5033611;28;19960;-78
2021/07/19 01:09:17;;;;;;;;;;;22.00;93.30;;;;;;5033271;28;19932;-76
2021/07/19 01:11:42;;;;;;;;;;;22.10;93.30;;;;;;5033589;28;20007;-77
2021/07/19 01:14:08;;;;;;;;;;;22.20;92.90;;;;;;5032258;28;19909;-77
2021/07/19 01:16:33;;;;;;;;;;;22.20;92.70;;;;;;5033501;28;19963;-78
2021/07/19 01:18:59;;;;;;;;;;;22.20;92.50;;;;;;5033521;28;19909;-78
2021/07/19 01:21:37;;;;;;;;;;;22.10;92.80;;;;;;5033498;28;19916;-78
2021/07/19 01:24:09;;;;;;;;;;;21.70;93.70;;;;;;5033372;28;19917;-77
2021/07/19 01:26:44;;;;;;;;;;;21.40;94.40;;;;;;5032116;28;19909;-78
2021/07/19 01:29:11;;;;;;;;;;;21.10;94.40;;;;;;5033577;28;19958;-77
2021/07/19 01:31:39;;;;;;;;;;;21.30;93.90;;;;;;5033376;28;19913;-77
2021/07/19 01:34:05;;;;;;;;;;;21.40;93.50;;;;;;5033393;28;20365;-77
2021/07/19 01:36:36;;;;;;;;;;;21.30;93.80;;;;;;5033256;28;20428;-77
2021/07/19 01:39:05;;;;;;;;;;;21.30;94.40;;;;;;5033318;28;19909;-77
2021/07/19 01:41:31;;;;;;;;;;;21.40;94.60;;;;;;5033425;28;19909;-78
2021/07/19 01:43:57;;;;;;;;;;;20.80;94.10;;;;;;5033278;28;19963;-77
2021/07/19 01:46:24;;;;;;;;;;;20.20;95.50;;;;;;5033222;28;19963;-77
2021/07/19 01:48:50;;;;;;;;;;;20.40;95.50;;;;;;5033250;28;19941;-77
2021/07/19 01:51:16;;;;;;;;;;;20.60;95.20;;;;;;5033564;28;19914;-77
2021/07/19 01:53:42;;;;;;;;;;;20.70;95.00;;;;;;5033198;28;19916;-76
2021/07/19 01:56:08;;;;;;;;;;;20.70;95.00;;;;;;5033155;28;20004;-78
2021/07/19 01:58:34;;;;;;;;;;;20.80;94.80;;;;;;5031855;28;19909;-78
2021/07/19 02:01:00;;;;;;;;;;;20.60;95.50;;;;;;5033158;28;20019;-77
2021/07/19 02:03:26;;;;;;;;;;;20.80;95.10;;;;;;5033123;28;19913;-77
2021/07/19 02:05:52;;;;;;;;;;;20.90;94.40;;;;;;5033120;28;19909;-76
2021/07/19 02:08:20;;;;;;;;;;;21.10;93.80;;;;;;5032867;28;19921;-77
2021/07/19 02:10:49;;;;;;;;;;;21.00;93.60;;;;;;5032888;28;19909;-77
2021/07/19 02:13:15;;;;;;;;;;;20.70;95.00;;;;;;5033968;28;19909;-77
2021/07/19 02:15:41;;;;;;;;;;;20.50;94.90;;;;;;5036562;28;19913;-77
2021/07/19 02:18:08;;;;;;;;;;;20.20;95.20;;;;;;5036571;28;19917;-79
2021/07/19 02:20:34;;;;;;;;;;;20.30;95.10;;;;;;5036515;28;19909;-78
2021/07/19 02:23:01;;;;;;;;;;;20.40;95.10;;;;;;5036414;28;19967;-75
2021/07/19 02:25:27;;;;;;;;;;;20.60;95.10;;;;;;5036371;28;20031;-77
2021/07/19 02:27:54;;;;;;;;;;;20.70;95.20;;;;;;5036580;28;19909;-78
2021/07/19 02:30:21;;;;;;;;;;;19.90;95.10;;;;;;5036466;28;19909;-77
2021/07/19 02:32:50;;;;;;;;;;;20.10;95.20;;;;;;5036292;28;19913;-77
2021/07/19 02:35:17;;;;;;;;;;;20.10;95.80;;;;;;5036168;28;19917;-78
2021/07/19 02:37:44;;;;;;;;;;;20.00;95.80;;;;;;5036564;28;19909;-77
2021/07/19 02:40:11;;;;;;;;;;;20.10;95.50;;;;;;5036178;28;19917;-77
2021/07/19 02:42:39;;;;;;;;;;;20.50;95.00;;;;;;5034868;28;19987;-77
2021/07/19 02:45:09;;;;;;;;;;;20.60;94.60;;;;;;5036121;28;19909;-76
2021/07/19 02:47:35;;;;;;;;;;;20.60;94.00;;;;;;5036380;28;19951;-78
2021/07/19 02:50:02;;;;;;;;;;;20.50;93.80;;;;;;5034720;28;19913;-77
2021/07/19 02:52:28;;;;;;;;;;;20.40;93.80;;;;;;5035935;28;19909;-77
2021/07/19 02:54:54;;;;;;;;;;;20.40;93.80;;;;;;5035832;28;20281;-77
2021/07/19 02:57:19;;;;;;;;;;;20.30;94.50;;;;;;5036012;28;19909;-77
2021/07/19 02:59:45;;;;;;;;;;;20.00;95.20;;;;;;5036040;28;19909;-78
2021/07/19 03:02:11;;;;;;;;;;;20.00;95.70;;;;;;5034491;28;20274;-78
2021/07/19 03:04:38;;;;;;;;;;;20.20;95.20;;;;;;5035729;28;19909;-77
2021/07/19 03:07:05;;;;;;;;;;;20.20;94.60;;;;;;5034412;28;19916;-75
2021/07/19 03:09:32;;;;;;;;;;;20.00;95.50;;;;;;5035264;28;19921;-77
2021/07/19 03:11:58;;;;;;;;;;;19.90;95.30;;;;;;5035450;28;19956;-76
2021/07/19 03:14:24;;;;;;;;;;;19.80;94.80;;;;;;5035613;28;20408;-78
2021/07/19 03:16:50;;;;;;;;;;;19.90;94.30;;;;;;5035629;28;19913;-78
2021/07/19 03:19:17;;;;;;;;;;;19.70;94.70;;;;;;5035415;28;19913;-77
2021/07/19 03:21:43;;;;;;;;;;;19.50;95.60;;;;;;5035571;28;19962;-78
2021/07/19 03:24:09;;;;;;;;;;;19.50;95.60;;;;;;5034810;28;19909;-77
2021/07/19 03:26:36;;;;;;;;;;;19.70;95.80;;;;;;5034758;28;19916;-77
2021/07/19 03:29:02;;;;;;;;;;;19.90;94.70;;;;;;5035267;28;19955;-78
2021/07/19 03:31:29;;;;;;;;;;;19.70;94.80;;;;;;5035382;28;19967;-77
2021/07/19 03:33:55;;;;;;;;;;;19.60;95.00;;;;;;5035296;28;19913;-77
2021/07/19 03:36:21;;;;;;;;;;;19.80;94.60;;;;;;5034877;28;19913;-78
2021/07/19 03:38:47;;;;;;;;;;;19.80;94.50;;;;;;5035108;28;19959;-77
2021/07/19 03:41:13;;;;;;;;;;;19.90;94.40;;;;;;5035383;28;19910;-77
2021/07/19 03:43:40;;;;;;;;;;;19.70;95.70;;;;;;5035115;28;19909;-78
2021/07/19 03:46:05;;;;;;;;;;;19.70;95.60;;;;;;5034911;28;19909;-78
2021/07/19 03:48:31;;;;;;;;;;;19.70;95.70;;;;;;5034863;28;20290;-77
2021/07/19 03:50:57;;;;;;;;;;;19.70;94.50;;;;;;5034796;28;20395;-77
2021/07/19 03:53:23;;;;;;;;;;;19.70;94.40;;;;;;5033512;28;19916;-77
2021/07/19 03:55:49;;;;;;;;;;;19.70;94.10;;;;;;5034837;28;20341;-77
2021/07/19 03:58:15;;;;;;;;;;;19.60;94.00;;;;;;5034775;28;19909;-77
2021/07/19 04:00:41;;;;;;;;;;;19.60;94.10;;;;;;5034816;28;20286;-78
2021/07/19 04:03:17;;;;;;;;;;;19.70;94.30;;;;;;5034675;28;19909;-77
2021/07/19 04:05:47;;;;;;;;;;;19.50;94.50;;;;;;5034798;28;19909;-76
2021/07/19 04:08:14;;;;;;;;;;;19.50;94.00;;;;;;5034577;28;19921;-78
2021/07/19 04:10:39;;;;;;;;;;;19.40;94.20;;;;;;5034308;28;19920;-78
2021/07/19 04:13:07;;;;;;;;;;;19.20;94.60;;;;;;5034408;28;19913;-77
2021/07/19 04:15:34;;;;;;;;;;;19.10;95.00;;;;;;5034692;28;19913;-77
2021/07/19 04:17:59;;;;;;;;;;;19.10;95.40;;;;;;5034326;28;19909;-77
2021/07/19 04:20:25;;;;;;;;;;;19.20;95.20;;;;;;5034319;28;19932;-77
2021/07/19 04:22:53;;;;;;;;;;;19.10;94.90;;;;;;5034231;28;19909;-78
2021/07/19 04:25:18;;;;;;;;;;;19.20;94.70;;;;;;5034390;28;19915;-77
2021/07/19 04:27:44;;;;;;;;;;;19.20;94.50;;;;;;5034193;28;20389;-77
2021/07/19 04:30:10;;;;;;;;;;;19.30;94.00;;;;;;5034139;28;19916;-78
2021/07/19 04:32:45;;;;;;;;;;;19.30;94.30;;;;;;5034118;28;19909;-77
2021/07/19 04:35:18;;;;;;;;;;;19.10;95.50;;;;;;5034291;28;19909;-78
2021/07/19 04:37:44;;;;;;;;;;;19.10;95.40;;;;;;5033776;28;19909;-77
2021/07/19 04:40:10;;;;;;;;;;;19.20;94.10;;;;;;5034022;28;20320;-78
2021/07/19 04:42:37;;;;;;;;;;;19.10;94.40;;;;;;5033973;28;19910;-77
2021/07/19 04:45:05;;;;;;;;;;;19.10;94.10;;;;;;5032650;28;19910;-77
2021/07/19 04:47:30;;;;;;;;;;;19.20;94.00;;;;;;5034083;28;19909;-77
2021/07/19 04:49:56;;;;;;;;;;;19.00;95.10;;;;;;5033871;28;19999;-78
2021/07/19 04:52:22;;;;;;;;;;;19.00;95.40;;;;;;5034033;28;19953;-77
2021/07/19 04:54:49;;;;;;;;;;;19.00;95.70;;;;;;5032522;28;20388;-77
2021/07/19 04:57:15;;;;;;;;;;;19.20;95.80;;;;;;5033853;28;19913;-77
2021/07/19 04:59:49;;;;;;;;;;;19.40;94.50;;;;;;5033730;28;19909;-77
2021/07/19 05:02:19;;;;;;;;;;;19.40;93.90;;;;;;5033721;28;19910;-77
2021/07/19 05:04:50;;;;;;;;;;;19.30;94.40;;;;;;5033671;28;19932;-78
2021/07/19 05:07:17;;;;;;;;;;;19.00;95.00;;;;;;5033974;28;19909;-76
2021/07/19 05:09:43;;;;;;;;;;;19.20;95.00;;;;;;5033182;28;19921;-77
2021/07/19 05:12:13;;;;;;;;;;;19.50;94.30;;;;;;5033617;28;19971;-79
2021/07/19 05:14:40;;;;;;;;;;;19.60;93.50;;;;;;5033522;28;19909;-78
2021/07/19 05:17:08;;;;;;;;;;;19.60;93.60;;;;;;5033370;28;19921;-78
2021/07/19 05:19:36;;;;;;;;;;;19.30;93.40;;;;;;5033944;28;19916;-78
2021/07/19 05:22:02;;;;;;;;;;;19.20;93.80;;;;;;5033222;28;19910;-77
2021/07/19 05:24:31;;;;;;;;;;;19.20;94.80;;;;;;5033391;28;19909;-77
2021/07/19 05:26:56;;;;;;;;;;;19.30;94.60;;;;;;5033416;28;20365;-78
2021/07/19 05:29:22;;;;;;;;;;;19.40;94.60;;;;;;5033510;28;19909;-78
2021/07/19 05:31:47;;;;;;;;;;;19.40;94.40;;;;;;5032136;28;19943;-77
2021/07/19 05:34:13;;;;;;;;;;;19.40;95.00;;;;;;5033349;28;19996;-76
2021/07/19 05:36:39;;;;;;;;;;;19.30;95.50;;;;;;5033620;28;19920;-78
2021/07/19 05:39:04;;;;;;;;;;;19.50;95.20;;;;;;5033362;28;19953;-77
2021/07/19 05:41:30;;;;;;;;;;;19.80;94.50;;;;;;5032090;28;19917;-77
2021/07/19 05:43:55;;;;;;;;;;;19.90;94.30;;;;;;5033351;28;19910;-79
2021/07/19 05:46:21;;;;;;;;;;;20.00;94.80;;;;;;5031988;28;20377;-78
2021/07/19 05:48:46;;;;;;;;;;;20.20;94.50;;;;;;5035463;28;19920;-77
2021/07/19 05:51:12;;;;;;;;;;;19.90;95.20;;;;;;5035793;28;19916;-77
2021/07/19 05:53:38;;;;;;;;;;;20.00;95.30;;;;;;5037007;28;19909;-79
2021/07/19 05:56:03;;;;;;;;;;;20.30;95.00;;;;;;5036867;28;19913;-77
2021/07/19 05:58:30;;;;;;;;;;;20.30;95.00;;;;;;5036699;28;19909;-76
2021/07/19 06:00:56;;;;;;;;;;;20.30;95.20;;;;;;5036975;28;19991;-78
2021/07/19 06:03:23;;;;;;;;;;;20.20;95.60;;;;;;5036834;28;19952;-78
2021/07/19 06:05:48;;;;;;;;;;;20.20;95.80;;;;;;5036918;28;19958;-77
2021/07/19 06:08:14;;;;;;;;;;;20.00;96.40;;;;;;5036534;28;19996;-77
2021/07/19 06:10:40;;;;;;;;;;;20.00;96.90;;;;;;5036776;28;20408;-78
2021/07/19 06:13:05;;;;;;;;;;;20.50;96.00;;;;;;5036654;28;20421;-79
2021/07/19 06:15:31;;;;;;;;;;;20.60;96.00;;;;;;5035203;28;20320;-78
2021/07/19 06:17:57;;;;;;;;;;;20.70;95.60;;;;;;5036595;28;19935;-78
2021/07/19 06:20:29;;;;;;;;;;;20.80;96.10;;;;;;5036756;28;20377;-78
2021/07/19 06:23:00;;;;;;;;;;;20.70;96.70;;;;;;5036440;28;19916;-76
2021/07/19 06:25:27;;;;;;;;;;;20.60;97.10;;;;;;5036629;28;20257;-77
2021/07/19 06:27:53;;;;;;;;;;;20.80;97.10;;;;;;5036506;28;20345;-77
2021/07/19 06:30:19;;;;;;;;;;;21.00;97.00;;;;;;5036415;28;19909;-76
2021/07/19 06:32:44;;;;;;;;;;;21.10;97.10;;;;;;5036521;28;19909;-78
2021/07/19 06:35:10;;;;;;;;;;;21.40;96.60;;;;;;5036170;28;20275;-78
2021/07/19 06:37:36;;;;;;;;;;;21.70;96.30;;;;;;5036399;28;19909;-76
2021/07/19 06:40:03;;;;;;;;;;;21.80;96.00;;;;;;5036354;28;20366;-78
2021/07/19 06:42:28;;;;;;;;;;;22.10;95.90;;;;;;5036176;28;19913;-76
2021/07/19 06:44:56;;;;;;;;;;;22.10;95.90;;;;;;5036482;28;19916;-77
2021/07/19 06:47:22;;;;;;;;;;;22.10;96.00;;;;;;5036253;28;19909;-78
2021/07/19 06:49:48;;;;;;;;;;;22.10;96.40;;;;;;5035993;28;19916;-79
2021/07/19 06:52:14;;;;;;;;;;;22.40;96.10;;;;;;5036005;28;20289;-77
2021/07/19 06:54:40;;;;;;;;;;;22.50;96.20;;;;;;5035921;28;20273;-77
2021/07/19 06:57:05;;;;;;;;;;;22.50;96.00;;;;;;5035946;28;20000;-77
2021/07/19 06:59:31;;;;;;;;;;;22.70;95.60;;;;;;5035912;28;20285;-77
2021/07/19 07:01:56;;;;;;;;;;;23.00;95.20;;;;;;5035895;28;19913;-78
2021/07/19 07:04:22;;;;;;;;;;;23.20;94.00;;;;;;5035734;28;19959;-77
2021/07/19 07:06:48;;;;;;;;;;;23.40;93.80;;;;;;5035857;28;20277;-75
2021/07/19 07:09:13;;;;;;;;;;;23.50;93.40;;;;;;5035482;28;19967;-78
2021/07/19 07:11:39;;;;;;;;;;;23.50;93.00;;;;;;5035613;28;19916;-76
2021/07/19 07:14:05;;;;;;;;;;;23.60;92.80;;;;;;5035566;28;20282;-78
2021/07/19 07:16:31;;;;;;;;;;;23.60;92.00;;;;;;5034208;28;19952;-78
2021/07/19 07:18:57;;;;;;;;;;;23.70;92.00;;;;;;5035509;28;20009;-77
2021/07/19 07:21:23;;;;;;;;;;;23.70;91.90;;;;;;5035608;28;20370;-77
2021/07/19 07:23:49;;;;;;;;;;;23.80;92.40;;;;;;5034029;28;20289;-78
2021/07/19 07:26:14;;;;;;;;;;;23.90;92.60;;;;;;5035519;28;19909;-76
2021/07/19 07:28:40;;;;;;;;;;;24.00;92.30;;;;;;5035330;28;19909;-76
2021/07/19 07:31:06;;;;;;;;;;;24.10;92.10;;;;;;5035455;28;19909;-78
2021/07/19 07:33:31;;;;;;;;;;;24.30;91.60;;;;;;5035197;28;19915;-78
2021/07/19 07:35:57;;;;;;;;;;;24.40;90.90;;;;;;5035324;28;19917;-78
2021/07/19 07:38:22;;;;;;;;;;;25.20;90.40;;;;;;5035179;28;19948;-78
2021/07/19 07:40:49;;;;;;;;;;;26.20;87.00;;;;;;5034867;28;19909;-78
2021/07/19 07:43:15;;;;;;;;;;;27.10;82.00;;;;;;5035399;28;19909;-78
2021/07/19 07:45:41;;;;;;;;;;;27.80;80.70;;;;;;5035031;28;20331;-78
2021/07/19 07:48:06;;;;;;;;;;;28.30;77.80;;;;;;5034860;28;19917;-79
2021/07/19 07:50:32;;;;;;;;;;;29.20;76.70;;;;;;5034837;28;19916;-78
2021/07/19 07:52:58;;;;;;;;;;;30.00;74.90;;;;;;5034784;28;20408;-78
2021/07/19 07:55:23;;;;;;;;;;;30.50;72.70;;;;;;5035018;28;19920;-78
2021/07/19 07:57:49;;;;;;;;;;;30.90;68.60;;;;;;5034721;28;19944;-77
2021/07/19 08:00:16;;;;;;;;;;;31.00;67.90;;;;;;5034856;28;19909;-79
2021/07/19 08:02:42;;;;;;;;;;;31.20;67.60;;;;;;5034360;28;19909;-80
2021/07/19 08:05:08;;;;;;;;;;;31.40;66.00;;;;;;5034572;28;19909;-81
2021/07/19 08:07:34;;;;;;;;;;;31.40;66.50;;;;;;5034492;28;19909;-78
2021/07/19 08:10:00;;;;;;;;;;;31.70;64.60;;;;;;5032978;28;19909;-79
2021/07/19 08:12:26;;;;;;;;;;;31.50;64.50;;;;;;5032600;28;19944;-77
2021/07/19 08:14:52;;;;;;;;;;;31.80;63.00;;;;;;5034476;28;19911;-78
2021/07/19 08:17:18;;;;;;;;;;;31.50;65.00;;;;;;5034269;28;19913;-78
2021/07/19 08:19:44;;;;;;;;;;;31.40;64.60;;;;;;5034325;28;20344;-80
2021/07/19 08:22:13;;;;;;;;;;;31.40;65.10;;;;;;5034377;28;19948;-78
2021/07/19 08:24:41;;;;;;;;;;;31.30;64.70;;;;;;5034231;28;19951;-78
2021/07/19 08:27:07;;;;;;;;;;;31.40;63.60;;;;;;5034222;28;19913;-78
2021/07/19 08:29:33;;;;;;;;;;;31.30;64.30;;;;;;5034356;28;19909;-78
2021/07/19 08:31:59;;;;;;;;;;;31.30;64.50;;;;;;5034293;28;19909;-77
2021/07/19 08:34:24;;;;;;;;;;;31.20;64.30;;;;;;5034137;28;20003;-79
2021/07/19 08:36:51;;;;;;;;;;;31.40;63.10;;;;;;5034408;28;19913;-78
2021/07/19 08:39:17;;;;;;;;;;;31.10;63.20;;;;;;5034206;28;19913;-78
2021/07/19 08:41:42;;;;;;;;;;;31.10;62.40;;;;;;5033976;28;19916;-79
2021/07/19 08:44:10;;;;;;;;;;;30.80;62.50;;;;;;5034011;28;19909;-79
2021/07/19 08:46:36;;;;;;;;;;;31.30;63.70;;;;;;5033933;28;19909;-78
2021/07/19 08:49:03;;;;;;;;;;;31.70;61.70;;;;;;5033956;28;20313;-77
2021/07/19 08:51:30;;;;;;;;;;;32.00;61.00;;;;;;5033915;28;19913;-77
2021/07/19 08:53:58;;;;;;;;;;;31.70;61.50;;;;;;5032516;28;20360;-79
2021/07/19 08:56:23;;;;;;;;;;;31.60;62.00;;;;;;5033627;28;19920;-77
2021/07/19 08:58:49;;;;;;;;;;;31.70;61.50;;;;;;5034132;28;19909;-78
2021/07/19 09:01:15;;;;;;;;;;;31.70;63.10;;;;;;5033652;28;19913;-78
2021/07/19 09:03:41;;;;;;;;;;;31.40;62.10;;;;;;5033602;28;20357;-79
2021/07/19 09:06:10;;;;;;;;;;;31.40;62.40;;;;;;5033649;28;19920;-79
2021/07/19 09:08:44;;;;;;;;;;;31.30;62.80;;;;;;5033397;28;20328;-78
2021/07/19 09:11:10;;;;;;;;;;;31.70;61.30;;;;;;5034038;28;19909;-79
2021/07/19 09:13:35;;;;;;;;;;;32.20;61.80;;;;;;5033707;28;19910;-78
2021/07/19 09:16:01;;;;;;;;;;;32.80;59.50;;;;;;5033444;28;19913;-77
2021/07/19 09:18:28;;;;;;;;;;;32.70;59.10;;;;;;5033464;28;20290;-79
2021/07/19 09:20:54;;;;;;;;;;;33.10;57.50;;;;;;5032187;28;19909;-78
2021/07/19 09:23:27;;;;;;;;;;;33.50;56.10;;;;;;5034551;28;19909;-78
2021/07/19 09:25:55;;;;;;;;;;;33.70;54.40;;;;;;5036531;28;19932;-79
2021/07/19 09:28:27;;;;;;;;;;;33.70;54.60;;;;;;5037479;28;19956;-77
2021/07/19 09:30:52;;;;;;;;;;;33.40;54.30;;;;;;5037449;28;19909;-78
2021/07/19 09:33:19;;;;;;;;;;;33.00;55.20;;;;;;5037811;28;20344;-79
2021/07/19 09:35:49;;;;;;;;;;;33.00;55.50;;;;;;5037397;28;19913;-77
2021/07/19 09:38:16;;;;;;;;;;;33.20;55.10;;;;;;5036233;28;19912;-79
2021/07/19 09:40:43;;;;;;;;;;;33.70;53.60;;;;;;5037355;28;19916;-79
2021/07/19 09:43:30;;;;;;;;;;;34.30;52.50;;;;;;5037185;28;20436;-78
2021/07/19 09:45:59;;;;;;;;;;;34.90;51.40;;;;;;5037480;28;19909;-79
2021/07/19 09:48:25;;;;;;;;;;;35.50;48.70;;;;;;5037074;28;19915;-78
2021/07/19 09:50:52;;;;;;;;;;;35.20;48.60;;;;;;5035752;28;20322;-78
2021/07/19 09:53:27;;;;;;;;;;;34.60;50.20;;;;;;5037207;28;20373;-79
2021/07/19 09:55:54;;;;;;;;;;;34.70;49.10;;;;;;5036856;28;20008;-79
2021/07/19 09:58:22;;;;;;;;;;;35.00;49.40;;;;;;5036872;28;19936;-78
2021/07/19 10:00:48;;;;;;;;;;;35.50;49.90;;;;;;5037098;28;19909;-80
2021/07/19 10:03:14;;;;;;;;;;;35.60;46.80;;;;;;5036891;28;19909;-78
2021/07/19 10:05:40;;;;;;;;;;;35.40;47.40;;;;;;5036745;28;20380;-79
2021/07/19 10:08:06;;;;;;;;;;;36.10;46.90;;;;;;5035319;28;19917;-78
2021/07/19 10:10:44;;;;;;;;;;;36.40;46.00;;;;;;5036153;28;19909;-77
2021/07/19 10:13:09;;;;;;;;;;;36.30;46.20;;;;;;5035204;28;19931;-79
2021/07/19 10:15:36;;;;;;;;;;;36.20;46.20;;;;;;5036873;28;20000;-78
2021/07/19 10:18:10;;;;;;;;;;;36.20;45.40;;;;;;5036666;28;19964;-78
2021/07/19 10:20:36;;;;;;;;;;;36.40;44.50;;;;;;5036761;28;19916;-78
2021/07/19 10:23:03;;;;;;;;;;;37.00;44.60;;;;;;5036506;28;20328;-81
2021/07/19 10:25:29;;;;;;;;;;;37.50;42.70;;;;;;5035215;28;19909;-78
2021/07/19 10:27:55;;;;;;;;;;;37.00;43.50;;;;;;5036679;28;19909;-79
2021/07/19 10:30:20;;;;;;;;;;;37.40;42.90;;;;;;5036380;28;20281;-79
2021/07/19 10:32:46;;;;;;;;;;;37.10;43.10;;;;;;5035086;28;19923;-80
2021/07/19 10:35:11;;;;;;;;;;;37.60;43.10;;;;;;5035682;28;19909;-78
2021/07/19 10:37:55;;;;;;;;;;;38.20;41.80;;;;;;5036337;28;19956;-80
2021/07/19 10:40:32;;;;;;;;;;;39.10;40.40;;;;;;5036428;28;19916;-75
2021/07/19 10:43:09;;;;;;;;;;;39.20;40.10;;;;;;5036177;28;19920;-77
2021/07/19 10:45:39;;;;;;;;;;;40.00;39.30;;;;;;5036005;28;20385;-78
2021/07/19 10:48:05;;;;;;;;;;;39.40;39.50;;;;;;5036105;28;19909;-76
2021/07/19 10:50:36;;;;;;;;;;;39.30;40.10;;;;;;5035923;28;19910;-77
2021/07/19 10:53:01;;;;;;;;;;;38.90;41.10;;;;;;5036182;28;19916;-75
2021/07/19 10:55:31;;;;;;;;;;;40.00;38.20;;;;;;5035737;28;19909;-77
2021/07/19 10:58:03;;;;;;;;;;;40.90;36.30;;;;;;5036239;28;19913;-79
2021/07/19 11:00:33;;;;;;;;;;;40.50;37.50;;;;;;5034445;28;19909;-75
2021/07/19 11:03:00;;;;;;;;;;;39.60;38.40;;;;;;5035676;28;19909;-78
2021/07/19 11:05:32;;;;;;;;;;;40.30;38.40;;;;;;5035687;28;19918;-77
2021/07/19 11:07:57;;;;;;;;;;;40.60;36.70;;;;;;5033873;28;20309;-75
2021/07/19 11:10:23;;;;;;;;;;;40.40;37.60;;;;;;5035858;28;19910;-77
2021/07/19 11:12:51;;;;;;;;;;;40.40;38.00;;;;;;5035483;28;19909;-77
2021/07/19 11:15:24;;;;;;;;;;;41.20;38.20;;;;;;5034117;28;19920;-76
2021/07/19 11:17:50;;;;;;;;;;;41.10;37.40;;;;;;5035607;28;19909;-76
2021/07/19 11:20:16;;;;;;;;;;;41.20;36.80;;;;;;5035473;28;20362;-76
2021/07/19 11:22:42;;;;;;;;;;;41.40;36.60;;;;;;5035220;28;19909;-76
2021/07/19 11:25:08;;;;;;;;;;;42.10;35.70;;;;;;5035184;28;19909;-77
2021/07/19 11:27:35;;;;;;;;;;;40.70;37.50;;;;;;5035188;28;20329;-78
2021/07/19 11:30:10;;;;;;;;;;;40.10;38.00;;;;;;5035484;28;19914;-76
2021/07/19 11:32:37;;;;;;;;;;;40.20;38.00;;;;;;5033807;28;19913;-77
2021/07/19 11:35:06;;;;;;;;;;;40.50;38.70;;;;;;5035116;28;20400;-75
2021/07/19 11:37:32;;;;;;;;;;;40.80;38.30;;;;;;5035025;28;20373;-75
2021/07/19 11:39:58;;;;;;;;;;;40.80;37.30;;;;;;5034923;28;19912;-77
2021/07/19 11:42:41;;;;;;;;;;;41.00;38.70;;;;;;5035152;28;20289;-77
2021/07/19 11:45:09;;;;;;;;;;;40.70;37.50;;;;;;5034610;28;19963;-76
2021/07/19 11:47:57;;;;;;;;;;;41.30;36.80;;;;;;5034509;28;19916;-77
2021/07/19 11:50:25;;;;;;;;;;;41.60;36.60;;;;;;5035029;28;20357;-74
2021/07/19 11:52:55;;;;;;;;;;;42.00;35.90;;;;;;5034796;28;19916;-76
2021/07/19 11:55:21;;;;;;;;;;;42.00;36.00;;;;;;5034800;28;19963;-78
2021/07/19 11:57:51;;;;;;;;;;;41.70;37.00;;;;;;5034829;28;19913;-74
2021/07/19 12:00:34;;;;;;;;;;;41.90;35.90;;;;;;5034733;28;19913;-76
2021/07/19 12:02:59;;;;;;;;;;;41.70;36.00;;;;;;5034551;28;19989;-78
2021/07/19 12:05:25;;;;;;;;;;;41.80;36.10;;;;;;5034552;28;19944;-77
2021/07/19 12:08:01;;;;;;;;;;;42.10;36.00;;;;;;5034303;28;19921;-76
2021/07/19 12:10:27;;;;;;;;;;;42.50;36.20;;;;;;5034686;28;19959;-76
2021/07/19 12:12:52;;;;;;;;;;;43.00;36.40;;;;;;5033104;28;20349;-77
2021/07/19 12:15:18;;;;;;;;;;;43.20;35.50;;;;;;5034740;28;19960;-77
2021/07/19 12:17:44;;;;;;;;;;;43.00;35.10;;;;;;5034462;28;20327;-77
2021/07/19 12:20:12;;;;;;;;;;;43.00;36.00;;;;;;5034291;28;19967;-78
2021/07/19 12:22:38;;;;;;;;;;;43.80;34.60;;;;;;5032907;28;20375;-76
2021/07/19 12:25:05;;;;;;;;;;;43.30;35.00;;;;;;5034098;28;20040;-75
2021/07/19 12:27:30;;;;;;;;;;;42.90;35.40;;;;;;5034107;28;19910;-77
2021/07/19 12:29:56;;;;;;;;;;;42.50;35.40;;;;;;5034437;28;19931;-77
2021/07/19 12:32:21;;;;;;;;;;;42.00;35.10;;;;;;5034031;28;19909;-76
2021/07/19 12:34:47;;;;;;;;;;;42.10;35.30;;;;;;5034179;28;19979;-75
2021/07/19 12:37:19;;;;;;;;;;;41.40;35.80;;;;;;5033934;28;19936;-75
2021/07/19 12:39:50;;;;;;;;;;;41.30;36.00;;;;;;5032643;28;20009;-75
2021/07/19 12:42:16;;;;;;;;;;;41.70;35.70;;;;;;5033862;28;19910;-77
2021/07/19 12:44:52;;;;;;;;;;;41.90;35.10;;;;;;5032538;28;19909;-78
2021/07/19 12:47:18;;;;;;;;;;;41.80;35.30;;;;;;5033830;28;19909;-77
2021/07/19 12:49:44;;;;;;;;;;;42.00;35.00;;;;;;5033768;28;19909;-76
2021/07/19 12:52:11;;;;;;;;;;;42.30;36.30;;;;;;5033944;28;20354;-75
2021/07/19 12:54:38;;;;;;;;;;;42.00;35.20;;;;;;5033700;28;19983;-76
2021/07/19 12:57:03;;;;;;;;;;;41.90;34.70;;;;;;5033373;28;19913;-76
2021/07/19 12:59:29;;;;;;;;;;;41.60;34.50;;;;;;5033609;28;19970;-76
2021/07/19 13:01:57;;;;;;;;;;;41.60;34.50;;;;;;5033844;28;19916;-78
2021/07/19 13:04:23;;;;;;;;;;;41.80;34.20;;;;;;5033753;28;19909;-78
2021/07/19 13:06:48;;;;;;;;;;;42.10;34.50;;;;;;5033698;28;19909;-77
2021/07/19 13:09:23;;;;;;;;;;;42.00;35.00;;;;;;5033239;28;19928;-76
2021/07/19 13:11:59;;;;;;;;;;;42.00;34.10;;;;;;5033715;28;19910;-75
2021/07/19 13:14:25;;;;;;;;;;;42.00;34.30;;;;;;5033534;28;19952;-76
2021/07/19 13:16:58;;;;;;;;;;;42.00;35.10;;;;;;5033387;28;19994;-76
2021/07/19 13:19:34;;;;;;;;;;;42.00;35.30;;;;;;5033428;28;19917;-77
2021/07/19 13:22:00;;;;;;;;;;;42.50;35.10;;;;;;5033437;28;19916;-77
2021/07/19 13:24:34;;;;;;;;;;;42.70;33.80;;;;;;5032081;28;19992;-77
2021/07/19 13:27:03;;;;;;;;;;;41.70;35.40;;;;;;5033391;28;20005;-77
2021/07/19 13:29:29;;;;;;;;;;;42.00;35.00;;;;;;5033362;28;19909;-77
2021/07/19 13:32:05;;;;;;;;;;;42.20;35.30;;;;;;5033267;28;19916;-76
2021/07/19 13:34:31;;;;;;;;;;;42.20;34.60;;;;;;5032009;28;19909;-77
2021/07/19 13:36:56;;;;;;;;;;;42.40;35.50;;;;;;5033172;28;19924;-78
2021/07/19 13:39:26;;;;;;;;;;;42.60;33.10;;;;;;5033258;28;19958;-77
2021/07/19 13:42:13;;;;;;;;;;;42.50;33.90;;;;;;5033367;28;19909;-77
2021/07/19 13:44:40;;;;;;;;;;;42.20;32.80;;;;;;5031962;28;20288;-76
2021/07/19 13:47:06;;;;;;;;;;;41.30;33.90;;;;;;5033657;28;19951;-75
2021/07/19 13:49:32;;;;;;;;;;;41.10;35.90;;;;;;5033184;28;19941;-76
2021/07/19 13:51:57;;;;;;;;;;;41.30;35.40;;;;;;5033234;28;19913;-77
2021/07/19 13:54:23;;;;;;;;;;;41.30;35.00;;;;;;5033104;28;19909;-74
2021/07/19 13:56:49;;;;;;;;;;;41.50;34.70;;;;;;5033033;28;19944;-76
2021/07/19 13:59:14;;;;;;;;;;;40.90;35.60;;;;;;5033524;28;19910;-76
2021/07/19 14:01:40;;;;;;;;;;;41.00;35.40;;;;;;5033221;28;20000;-77
2021/07/19 14:04:05;;;;;;;;;;;40.60;35.80;;;;;;5033274;28;19916;-77
2021/07/19 14:06:31;;;;;;;;;;;40.90;36.30;;;;;;5033090;28;20004;-77
2021/07/19 14:08:57;;;;;;;;;;;41.10;35.80;;;;;;5033537;28;20293;-76
2021/07/19 14:11:23;;;;;;;;;;;41.20;36.40;;;;;;5036638;28;20396;-77
2021/07/19 14:13:48;;;;;;;;;;;41.30;35.60;;;;;;5036830;28;19916;-77
2021/07/19 14:16:14;;;;;;;;;;;41.30;36.00;;;;;;5036510;28;19913;-74